Terminal Aerodrome Forecast
Issued by NWS Atlanta, GA

Home | Current Version | Previous Version | Text Only | Print | Product List | Glossary On
Versions: 1 2 3 4 5 6 7 8 9 10 11 12 13 14 15 16 17 18 19 20 21 22 23 24 25 26 27 28 29 30 31 32
000
FTAK31 PAJN 260619 AAA
TAFAHN
TAF AMD
PAHN 260619Z 2606/2706 10009KT P6SM VCSH OVC025
      TEMPO 2606/2609 08011G18KT
     FM261100 10009KT 6SM -RA BR FEW007 OVC015
     FM261800 11010G16KT 6SM -RA BR OVC015
      AMD LTD TO CLD VIS AND WIND=

USA.gov is the U.S. government's official web portal to all federal, state and local government web resources and services.